sensor_id;sensor_type;location;lat;lon;timestamp;P1;durP1;ratioP1;P2;durP2;ratioP2
17449;SDS011;8842;51.244;7.102;2023-07-29T00:00:48;16.67;;;15.73;;
17449;SDS011;8842;51.244;7.102;2023-07-29T00:05:52;17.33;;;16.33;;
17449;SDS011;8842;51.244;7.102;2023-07-29T00:16:07;17.20;;;16.20;;
17449;SDS011;8842;51.244;7.102;2023-07-29T00:21:11;17.10;;;16.10;;
17449;SDS011;8842;51.244;7.102;2023-07-29T00:26:23;16.93;;;15.93;;
17449;SDS011;8842;51.244;7.102;2023-07-29T00:31:30;16.87;;;15.87;;
17449;SDS011;8842;51.244;7.102;2023-07-29T00:36:34;16.70;;;15.70;;
17449;SDS011;8842;51.244;7.102;2023-07-29T00:41:48;16.50;;;15.60;;
17449;SDS011;8842;51.244;7.102;2023-07-29T00:46:53;16.70;;;15.70;;
17449;SDS011;8842;51.244;7.102;2023-07-29T00:51:57;16.90;;;15.90;;
17449;SDS011;8842;51.244;7.102;2023-07-29T00:57:09;17.03;;;16.03;;
17449;SDS011;8842;51.244;7.102;2023-07-29T01:02:16;17.60;;;16.60;;
17449;SDS011;8842;51.244;7.102;2023-07-29T01:07:21;17.53;;;16.53;;
17449;SDS011;8842;51.244;7.102;2023-07-29T01:12:36;16.77;;;15.87;;
17449;SDS011;8842;51.244;7.102;2023-07-29T01:22:54;17.50;;;16.50;;
17449;SDS011;8842;51.244;7.102;2023-07-29T01:33:10;17.47;;;16.47;;
17449;SDS011;8842;51.244;7.102;2023-07-29T01:38:18;17.57;;;16.57;;
17449;SDS011;8842;51.244;7.102;2023-07-29T01:43:31;17.57;;;16.57;;
17449;SDS011;8842;51.244;7.102;2023-07-29T01:48:36;16.60;;;15.70;;
17449;SDS011;8842;51.244;7.102;2023-07-29T01:53:48;17.20;;;16.20;;
17449;SDS011;8842;51.244;7.102;2023-07-29T01:58:52;17.50;;;16.50;;
17449;SDS011;8842;51.244;7.102;2023-07-29T02:03:56;17.30;;;16.30;;
17449;SDS011;8842;51.244;7.102;2023-07-29T02:09:00;17.50;;;16.50;;
17449;SDS011;8842;51.244;7.102;2023-07-29T02:14:04;17.50;;;16.40;;
17449;SDS011;8842;51.244;7.102;2023-07-29T02:19:08;17.70;;;16.70;;
17449;SDS011;8842;51.244;7.102;2023-07-29T02:24:12;16.80;;;15.90;;
17449;SDS011;8842;51.244;7.102;2023-07-29T02:29:24;17.27;;;16.27;;
17449;SDS011;8842;51.244;7.102;2023-07-29T02:34:28;17.87;;;16.87;;
17449;SDS011;8842;51.244;7.102;2023-07-29T02:39:40;17.50;;;16.50;;
17449;SDS011;8842;51.244;7.102;2023-07-29T02:44:44;17.43;;;16.43;;
17449;SDS011;8842;51.244;7.102;2023-07-29T02:49:55;17.20;;;16.23;;
17449;SDS011;8842;51.244;7.102;2023-07-29T02:54:59;16.97;;;16.07;;
17449;SDS011;8842;51.244;7.102;2023-07-29T03:00:14;16.43;;;15.53;;
17449;SDS011;8842;51.244;7.102;2023-07-29T03:05:18;16.70;;;15.80;;
17449;SDS011;8842;51.244;7.102;2023-07-29T03:10:30;17.17;;;16.23;;
17449;SDS011;8842;51.244;7.102;2023-07-29T03:15:34;17.10;;;16.20;;
17449;SDS011;8842;51.244;7.102;2023-07-29T03:20:46;16.90;;;16.00;;
17449;SDS011;8842;51.244;7.102;2023-07-29T03:25:54;17.10;;;16.20;;
17449;SDS011;8842;51.244;7.102;2023-07-29T03:31:06;17.17;;;16.27;;
17449;SDS011;8842;51.244;7.102;2023-07-29T03:36:10;16.30;;;15.40;;
17449;SDS011;8842;51.244;7.102;2023-07-29T03:41:14;16.67;;;15.77;;
17449;SDS011;8842;51.244;7.102;2023-07-29T03:46:18;17.40;;;16.40;;
17449;SDS011;8842;51.244;7.102;2023-07-29T03:51:30;17.80;;;16.80;;
17449;SDS011;8842;51.244;7.102;2023-07-29T03:56:34;17.70;;;16.70;;
17449;SDS011;8842;51.244;7.102;2023-07-29T04:01:46;17.43;;;16.43;;
17449;SDS011;8842;51.244;7.102;2023-07-29T04:06:50;17.30;;;16.30;;
17449;SDS011;8842;51.244;7.102;2023-07-29T04:12:05;17.07;;;16.07;;
17449;SDS011;8842;51.244;7.102;2023-07-29T04:17:10;17.00;;;16.00;;
17449;SDS011;8842;51.244;7.102;2023-07-29T04:22:15;16.70;;;15.80;;
17449;SDS011;8842;51.244;7.102;2023-07-29T04:27:27;16.83;;;15.87;;
17449;SDS011;8842;51.244;7.102;2023-07-29T04:32:31;17.33;;;16.33;;
17449;SDS011;8842;51.244;7.102;2023-07-29T04:37:43;17.03;;;16.03;;
17449;SDS011;8842;51.244;7.102;2023-07-29T04:42:47;17.00;;;16.00;;
17449;SDS011;8842;51.244;7.102;2023-07-29T04:47:59;16.73;;;15.83;;
17449;SDS011;8842;51.244;7.102;2023-07-29T04:53:03;17.13;;;16.13;;
17449;SDS011;8842;51.244;7.102;2023-07-29T04:58:15;17.27;;;16.27;;
17449;SDS011;8842;51.244;7.102;2023-07-29T05:03:19;17.00;;;16.00;;
17449;SDS011;8842;51.244;7.102;2023-07-29T05:08:23;16.90;;;15.90;;
17449;SDS011;8842;51.244;7.102;2023-07-29T05:13:35;17.40;;;16.40;;
17449;SDS011;8842;51.244;7.102;2023-07-29T05:18:39;17.13;;;16.13;;
17449;SDS011;8842;51.244;7.102;2023-07-29T05:23:43;17.30;;;16.30;;
17449;SDS011;8842;51.244;7.102;2023-07-29T05:28:47;16.53;;;15.63;;
17449;SDS011;8842;51.244;7.102;2023-07-29T05:33:51;17.13;;;16.13;;
17449;SDS011;8842;51.244;7.102;2023-07-29T05:39:03;17.20;;;16.20;;
17449;SDS011;8842;51.244;7.102;2023-07-29T05:44:07;17.33;;;16.33;;
17449;SDS011;8842;51.244;7.102;2023-07-29T05:49:19;17.47;;;16.47;;
17449;SDS011;8842;51.244;7.102;2023-07-29T05:54:23;17.63;;;16.63;;
17449;SDS011;8842;51.244;7.102;2023-07-29T05:59:34;17.73;;;16.73;;
17449;SDS011;8842;51.244;7.102;2023-07-29T06:04:38;17.30;;;16.30;;
17449;SDS011;8842;51.244;7.102;2023-07-29T06:09:50;16.70;;;15.80;;
17449;SDS011;8842;51.244;7.102;2023-07-29T06:14:56;17.63;;;16.63;;
17449;SDS011;8842;51.244;7.102;2023-07-29T06:20:08;17.17;;;16.17;;
17449;SDS011;8842;51.244;7.102;2023-07-29T06:25:13;17.47;;;16.47;;
17449;SDS011;8842;51.244;7.102;2023-07-29T06:30:18;17.43;;;16.43;;
17449;SDS011;8842;51.244;7.102;2023-07-29T06:35:29;17.30;;;16.30;;
17449;SDS011;8842;51.244;7.102;2023-07-29T06:40:34;17.00;;;16.10;;
17449;SDS011;8842;51.244;7.102;2023-07-29T06:45:45;17.33;;;16.33;;
17449;SDS011;8842;51.244;7.102;2023-07-29T06:50:50;17.37;;;16.37;;
17449;SDS011;8842;51.244;7.102;2023-07-29T06:56:01;17.47;;;16.47;;
17449;SDS011;8842;51.244;7.102;2023-07-29T07:01:06;17.37;;;16.37;;
17449;SDS011;8842;51.244;7.102;2023-07-29T07:06:17;17.37;;;16.37;;
17449;SDS011;8842;51.244;7.102;2023-07-29T07:11:21;16.80;;;15.90;;
17449;SDS011;8842;51.244;7.102;2023-07-29T07:16:33;16.20;;;15.30;;
17449;SDS011;8842;51.244;7.102;2023-07-29T07:21:39;16.77;;;15.87;;
17449;SDS011;8842;51.244;7.102;2023-07-29T07:26:43;18.27;;;16.53;;
17449;SDS011;8842;51.244;7.102;2023-07-29T07:31:55;17.07;;;16.17;;
17449;SDS011;8842;51.244;7.102;2023-07-29T07:37:00;16.23;;;15.33;;
17449;SDS011;8842;51.244;7.102;2023-07-29T07:42:12;16.73;;;15.83;;
17449;SDS011;8842;51.244;7.102;2023-07-29T07:47:16;15.83;;;15.03;;
17449;SDS011;8842;51.244;7.102;2023-07-29T07:57:33;15.80;;;15.00;;
17449;SDS011;8842;51.244;7.102;2023-07-29T08:02:37;16.13;;;15.33;;
17449;SDS011;8842;51.244;7.102;2023-07-29T08:07:41;15.53;;;14.73;;
17449;SDS011;8842;51.244;7.102;2023-07-29T08:12:45;16.20;;;15.40;;
17449;SDS011;8842;51.244;7.102;2023-07-29T08:17:49;16.53;;;15.63;;
17449;SDS011;8842;51.244;7.102;2023-07-29T08:22:53;15.13;;;14.33;;
17449;SDS011;8842;51.244;7.102;2023-07-29T08:27:57;14.95;;;14.15;;
17449;SDS011;8842;51.244;7.102;2023-07-29T08:33:09;14.78;;;13.98;;
17449;SDS011;8842;51.244;7.102;2023-07-29T08:38:13;15.48;;;14.68;;
17449;SDS011;8842;51.244;7.102;2023-07-29T08:43:18;14.35;;;13.65;;
17449;SDS011;8842;51.244;7.102;2023-07-29T08:48:33;13.90;;;13.20;;
17449;SDS011;8842;51.244;7.102;2023-07-29T08:53:39;12.80;;;12.10;;
17449;SDS011;8842;51.244;7.102;2023-07-29T08:58:43;10.95;;;10.35;;
17449;SDS011;8842;51.244;7.102;2023-07-29T09:03:51;8.30;;;7.90;;
17449;SDS011;8842;51.244;7.102;2023-07-29T09:09:03;8.28;;;7.87;;
17449;SDS011;8842;51.244;7.102;2023-07-29T09:14:08;9.15;;;8.75;;
17449;SDS011;8842;51.244;7.102;2023-07-29T09:19:12;9.18;;;8.78;;
17449;SDS011;8842;51.244;7.102;2023-07-29T09:24:17;9.40;;;8.90;;
17449;SDS011;8842;51.244;7.102;2023-07-29T09:29:22;9.30;;;8.83;;
17449;SDS011;8842;51.244;7.102;2023-07-29T09:34:34;9.30;;;8.80;;
17449;SDS011;8842;51.244;7.102;2023-07-29T09:39:44;8.30;;;7.90;;
17449;SDS011;8842;51.244;7.102;2023-07-29T09:44:49;8.15;;;7.75;;
17449;SDS011;8842;51.244;7.102;2023-07-29T09:49:53;7.40;;;7.10;;
17449;SDS011;8842;51.244;7.102;2023-07-29T10:00:12;8.50;;;8.10;;
17449;SDS011;8842;51.244;7.102;2023-07-29T10:05:16;8.50;;;8.10;;
17449;SDS011;8842;51.244;7.102;2023-07-29T10:10:22;7.90;;;7.50;;
17449;SDS011;8842;51.244;7.102;2023-07-29T10:15:35;7.35;;;7.05;;
17449;SDS011;8842;51.244;7.102;2023-07-29T10:20:39;7.78;;;7.37;;
17449;SDS011;8842;51.244;7.102;2023-07-29T10:25:50;7.78;;;7.37;;
17449;SDS011;8842;51.244;7.102;2023-07-29T10:31:00;6.20;;;5.90;;
17449;SDS011;8842;51.244;7.102;2023-07-29T10:36:06;5.87;;;5.62;;
17449;SDS011;8842;51.244;7.102;2023-07-29T10:41:11;5.67;;;5.47;;
17449;SDS011;8842;51.244;7.102;2023-07-29T10:46:15;7.33;;;7.03;;
17449;SDS011;8842;51.244;7.102;2023-07-29T10:51:28;8.30;;;7.90;;
17449;SDS011;8842;51.244;7.102;2023-07-29T10:56:36;8.75;;;8.35;;
17449;SDS011;8842;51.244;7.102;2023-07-29T11:01:51;9.00;;;8.60;;
17449;SDS011;8842;51.244;7.102;2023-07-29T11:12:41;8.70;;;8.30;;
17449;SDS011;8842;51.244;7.102;2023-07-29T11:17:48;8.78;;;8.38;;
17449;SDS011;8842;51.244;7.102;2023-07-29T11:22:54;8.38;;;7.97;;
17449;SDS011;8842;51.244;7.102;2023-07-29T11:28:00;7.90;;;7.50;;
17449;SDS011;8842;51.244;7.102;2023-07-29T11:33:04;8.23;;;7.83;;
17449;SDS011;8842;51.244;7.102;2023-07-29T11:38:14;8.15;;;7.75;;
17449;SDS011;8842;51.244;7.102;2023-07-29T11:43:18;8.85;;;8.45;;
17449;SDS011;8842;51.244;7.102;2023-07-29T11:48:28;9.43;;;8.90;;
17449;SDS011;8842;51.244;7.102;2023-07-29T11:53:34;8.03;;;7.62;;
17449;SDS011;8842;51.244;7.102;2023-07-29T11:58:46;8.65;;;8.25;;
17449;SDS011;8842;51.244;7.102;2023-07-29T12:03:50;8.75;;;8.35;;
17449;SDS011;8842;51.244;7.102;2023-07-29T12:14:07;8.95;;;8.55;;
17449;SDS011;8842;51.244;7.102;2023-07-29T12:19:12;8.78;;;8.38;;
17449;SDS011;8842;51.244;7.102;2023-07-29T12:24:16;8.75;;;8.35;;
17449;SDS011;8842;51.244;7.102;2023-07-29T12:29:20;8.73;;;8.33;;
17449;SDS011;8842;51.244;7.102;2023-07-29T12:34:25;8.60;;;8.20;;
17449;SDS011;8842;51.244;7.102;2023-07-29T12:39:31;9.08;;;8.58;;
17449;SDS011;8842;51.244;7.102;2023-07-29T12:44:36;9.38;;;8.88;;
17449;SDS011;8842;51.244;7.102;2023-07-29T12:49:41;9.30;;;8.80;;
17449;SDS011;8842;51.244;7.102;2023-07-29T12:54:46;9.50;;;9.00;;
17449;SDS011;8842;51.244;7.102;2023-07-29T12:59:58;9.10;;;8.60;;
17449;SDS011;8842;51.244;7.102;2023-07-29T13:05:03;9.40;;;8.90;;
17449;SDS011;8842;51.244;7.102;2023-07-29T13:10:09;8.65;;;8.25;;
17449;SDS011;8842;51.244;7.102;2023-07-29T13:15:14;8.90;;;8.50;;
17449;SDS011;8842;51.244;7.102;2023-07-29T13:20:18;8.83;;;8.43;;
17449;SDS011;8842;51.244;7.102;2023-07-29T13:25:22;7.90;;;7.50;;
17449;SDS011;8842;51.244;7.102;2023-07-29T13:30:26;8.48;;;8.08;;
17449;SDS011;8842;51.244;7.102;2023-07-29T13:35:30;8.28;;;7.87;;
17449;SDS011;8842;51.244;7.102;2023-07-29T13:40:34;8.53;;;8.13;;
17449;SDS011;8842;51.244;7.102;2023-07-29T13:45:38;8.10;;;7.70;;
17449;SDS011;8842;51.244;7.102;2023-07-29T13:50:43;8.60;;;8.20;;
17449;SDS011;8842;51.244;7.102;2023-07-29T13:55:47;8.50;;;8.10;;
17449;SDS011;8842;51.244;7.102;2023-07-29T14:00:51;8.58;;;8.18;;
17449;SDS011;8842;51.244;7.102;2023-07-29T14:05:55;8.65;;;8.15;;
17449;SDS011;8842;51.244;7.102;2023-07-29T14:10:59;8.60;;;8.20;;
17449;SDS011;8842;51.244;7.102;2023-07-29T14:16:03;8.10;;;7.70;;
17449;SDS011;8842;51.244;7.102;2023-07-29T14:21:07;7.70;;;7.30;;
17449;SDS011;8842;51.244;7.102;2023-07-29T14:26:11;8.80;;;8.40;;
17449;SDS011;8842;51.244;7.102;2023-07-29T14:31:15;9.40;;;8.90;;
17449;SDS011;8842;51.244;7.102;2023-07-29T14:36:19;9.98;;;9.48;;
17449;SDS011;8842;51.244;7.102;2023-07-29T14:41:23;9.80;;;9.30;;
17449;SDS011;8842;51.244;7.102;2023-07-29T14:46:28;9.55;;;9.05;;
17449;SDS011;8842;51.244;7.102;2023-07-29T14:51:32;9.38;;;8.88;;
17449;SDS011;8842;51.244;7.102;2023-07-29T14:56:37;9.35;;;8.85;;
17449;SDS011;8842;51.244;7.102;2023-07-29T15:01:41;9.30;;;8.80;;
17449;SDS011;8842;51.244;7.102;2023-07-29T15:06:52;9.90;;;9.40;;
17449;SDS011;8842;51.244;7.102;2023-07-29T15:11:56;8.90;;;8.50;;
17449;SDS011;8842;51.244;7.102;2023-07-29T15:17:00;8.60;;;8.20;;
17449;SDS011;8842;51.244;7.102;2023-07-29T15:22:05;9.10;;;8.70;;
17449;SDS011;8842;51.244;7.102;2023-07-29T15:27:09;9.40;;;8.90;;
17449;SDS011;8842;51.244;7.102;2023-07-29T15:32:13;9.08;;;8.68;;
17449;SDS011;8842;51.244;7.102;2023-07-29T15:37:17;9.68;;;9.18;;
17449;SDS011;8842;51.244;7.102;2023-07-29T15:42:21;10.05;;;9.55;;
17449;SDS011;8842;51.244;7.102;2023-07-29T15:47:26;7.72;;;7.33;;
17449;SDS011;8842;51.244;7.102;2023-07-29T15:52:30;9.00;;;8.60;;
17449;SDS011;8842;51.244;7.102;2023-07-29T15:57:34;7.87;;;7.47;;
17449;SDS011;8842;51.244;7.102;2023-07-29T16:02:38;7.83;;;7.42;;
17449;SDS011;8842;51.244;7.102;2023-07-29T16:07:52;9.43;;;8.93;;
17449;SDS011;8842;51.244;7.102;2023-07-29T16:12:59;9.30;;;8.80;;
17449;SDS011;8842;51.244;7.102;2023-07-29T16:18:05;7.70;;;7.30;;
17449;SDS011;8842;51.244;7.102;2023-07-29T16:23:09;10.08;;;9.58;;
17449;SDS011;8842;51.244;7.102;2023-07-29T16:28:13;11.00;;;10.40;;
17449;SDS011;8842;51.244;7.102;2023-07-29T16:33:17;11.15;;;10.55;;
17449;SDS011;8842;51.244;7.102;2023-07-29T16:38:21;9.60;;;9.10;;
17449;SDS011;8842;51.244;7.102;2023-07-29T16:43:25;10.20;;;9.70;;
17449;SDS011;8842;51.244;7.102;2023-07-29T16:48:29;9.30;;;8.80;;
17449;SDS011;8842;51.244;7.102;2023-07-29T16:53:33;9.90;;;9.40;;
17449;SDS011;8842;51.244;7.102;2023-07-29T16:58:38;11.10;;;10.50;;
17449;SDS011;8842;51.244;7.102;2023-07-29T17:03:42;11.50;;;10.90;;
17449;SDS011;8842;51.244;7.102;2023-07-29T17:08:46;11.30;;;10.70;;
17449;SDS011;8842;51.244;7.102;2023-07-29T17:13:50;11.20;;;10.60;;
17449;SDS011;8842;51.244;7.102;2023-07-29T17:18:54;11.33;;;10.72;;
17449;SDS011;8842;51.244;7.102;2023-07-29T17:23:58;10.53;;;10.03;;
17449;SDS011;8842;51.244;7.102;2023-07-29T17:29:09;10.95;;;10.35;;
17449;SDS011;8842;51.244;7.102;2023-07-29T17:34:13;11.40;;;10.80;;
17449;SDS011;8842;51.244;7.102;2023-07-29T17:39:17;11.70;;;11.10;;
17449;SDS011;8842;51.244;7.102;2023-07-29T17:44:21;11.70;;;11.10;;
17449;SDS011;8842;51.244;7.102;2023-07-29T17:49:25;11.28;;;10.68;;
17449;SDS011;8842;51.244;7.102;2023-07-29T17:54:30;11.30;;;10.70;;
17449;SDS011;8842;51.244;7.102;2023-07-29T17:59:34;12.23;;;11.53;;
17449;SDS011;8842;51.244;7.102;2023-07-29T18:04:38;11.23;;;10.63;;
17449;SDS011;8842;51.244;7.102;2023-07-29T18:09:42;11.73;;;11.12;;
17449;SDS011;8842;51.244;7.102;2023-07-29T18:14:48;12.07;;;11.45;;
17449;SDS011;8842;51.244;7.102;2023-07-29T18:19:59;12.10;;;11.50;;
17449;SDS011;8842;51.244;7.102;2023-07-29T18:25:04;12.13;;;11.45;;
17449;SDS011;8842;51.244;7.102;2023-07-29T18:30:11;12.20;;;11.60;;
17449;SDS011;8842;51.244;7.102;2023-07-29T18:35:17;12.28;;;11.68;;
17449;SDS011;8842;51.244;7.102;2023-07-29T18:40:21;11.83;;;11.22;;
17449;SDS011;8842;51.244;7.102;2023-07-29T18:45:25;11.90;;;11.30;;
17449;SDS011;8842;51.244;7.102;2023-07-29T18:50:31;11.97;;;11.38;;
17449;SDS011;8842;51.244;7.102;2023-07-29T18:55:36;12.43;;;11.77;;
17449;SDS011;8842;51.244;7.102;2023-07-29T19:00:47;13.70;;;13.00;;
17449;SDS011;8842;51.244;7.102;2023-07-29T19:05:54;14.27;;;13.47;;
17449;SDS011;8842;51.244;7.102;2023-07-29T19:10:59;14.70;;;13.90;;
17449;SDS011;8842;51.244;7.102;2023-07-29T19:16:03;14.63;;;13.80;;
17449;SDS011;8842;51.244;7.102;2023-07-29T19:21:09;13.50;;;12.80;;
17449;SDS011;8842;51.244;7.102;2023-07-29T19:26:14;14.00;;;13.30;;
17449;SDS011;8842;51.244;7.102;2023-07-29T19:31:20;14.30;;;13.50;;
17449;SDS011;8842;51.244;7.102;2023-07-29T19:36:24;13.97;;;13.27;;
17449;SDS011;8842;51.244;7.102;2023-07-29T19:41:30;14.13;;;13.43;;
17449;SDS011;8842;51.244;7.102;2023-07-29T19:46:36;14.63;;;13.83;;
17449;SDS011;8842;51.244;7.102;2023-07-29T19:51:40;15.00;;;14.20;;
17449;SDS011;8842;51.244;7.102;2023-07-29T19:56:44;13.90;;;13.20;;
17449;SDS011;8842;51.244;7.102;2023-07-29T20:01:55;14.40;;;13.60;;
17449;SDS011;8842;51.244;7.102;2023-07-29T20:06:59;15.20;;;14.40;;
17449;SDS011;8842;51.244;7.102;2023-07-29T20:12:04;15.33;;;14.53;;
17449;SDS011;8842;51.244;7.102;2023-07-29T20:17:09;15.40;;;14.60;;
17449;SDS011;8842;51.244;7.102;2023-07-29T20:22:14;15.30;;;14.50;;
17449;SDS011;8842;51.244;7.102;2023-07-29T20:27:18;15.27;;;14.47;;
17449;SDS011;8842;51.244;7.102;2023-07-29T20:32:22;14.77;;;13.97;;
17449;SDS011;8842;51.244;7.102;2023-07-29T20:37:27;14.80;;;14.00;;
17449;SDS011;8842;51.244;7.102;2023-07-29T20:42:32;15.10;;;14.30;;
17449;SDS011;8842;51.244;7.102;2023-07-29T20:47:36;15.03;;;14.23;;
17449;SDS011;8842;51.244;7.102;2023-07-29T20:52:40;15.07;;;14.27;;
17449;SDS011;8842;51.244;7.102;2023-07-29T20:57:44;15.00;;;14.20;;
17449;SDS011;8842;51.244;7.102;2023-07-29T21:02:48;14.97;;;14.17;;
17449;SDS011;8842;51.244;7.102;2023-07-29T21:07:52;14.70;;;13.90;;
17449;SDS011;8842;51.244;7.102;2023-07-29T21:12:56;14.80;;;14.00;;
17449;SDS011;8842;51.244;7.102;2023-07-29T21:18:00;14.83;;;14.03;;
17449;SDS011;8842;51.244;7.102;2023-07-29T21:23:04;14.77;;;13.97;;
17449;SDS011;8842;51.244;7.102;2023-07-29T21:28:08;14.93;;;14.07;;
17449;SDS011;8842;51.244;7.102;2023-07-29T21:38:23;14.67;;;13.87;;
17449;SDS011;8842;51.244;7.102;2023-07-29T21:43:27;14.80;;;14.00;;
17449;SDS011;8842;51.244;7.102;2023-07-29T21:48:39;14.03;;;13.33;;
17449;SDS011;8842;51.244;7.102;2023-07-29T21:53:43;14.73;;;13.93;;
17449;SDS011;8842;51.244;7.102;2023-07-29T21:58:47;14.60;;;13.80;;
17449;SDS011;8842;51.244;7.102;2023-07-29T22:03:51;14.77;;;13.97;;
17449;SDS011;8842;51.244;7.102;2023-07-29T22:09:03;15.27;;;14.47;;
17449;SDS011;8842;51.244;7.102;2023-07-29T22:14:15;14.67;;;13.87;;
17449;SDS011;8842;51.244;7.102;2023-07-29T22:19:21;14.97;;;14.17;;
17449;SDS011;8842;51.244;7.102;2023-07-29T22:24:33;14.03;;;13.23;;
17449;SDS011;8842;51.244;7.102;2023-07-29T22:29:44;14.73;;;13.93;;
17449;SDS011;8842;51.244;7.102;2023-07-29T22:34:48;14.93;;;14.13;;
17449;SDS011;8842;51.244;7.102;2023-07-29T22:39:52;15.10;;;14.30;;
17449;SDS011;8842;51.244;7.102;2023-07-29T22:44:57;15.20;;;14.40;;
17449;SDS011;8842;51.244;7.102;2023-07-29T22:50:09;15.30;;;14.50;;
17449;SDS011;8842;51.244;7.102;2023-07-29T22:55:13;15.07;;;14.27;;
17449;SDS011;8842;51.244;7.102;2023-07-29T23:00:18;14.10;;;13.40;;
17449;SDS011;8842;51.244;7.102;2023-07-29T23:05:29;14.93;;;13.80;;
17449;SDS011;8842;51.244;7.102;2023-07-29T23:15:44;14.80;;;14.00;;
17449;SDS011;8842;51.244;7.102;2023-07-29T23:20:48;14.93;;;14.13;;
17449;SDS011;8842;51.244;7.102;2023-07-29T23:31:05;14.83;;;14.03;;
17449;SDS011;8842;51.244;7.102;2023-07-29T23:41:20;13.50;;;12.80;;
17449;SDS011;8842;51.244;7.102;2023-07-29T23:46:32;14.17;;;13.37;;
17449;SDS011;8842;51.244;7.102;2023-07-29T23:51:36;14.50;;;13.70;;
17449;SDS011;8842;51.244;7.102;2023-07-29T23:56:48;15.00;;;14.10;;
